Time;durP1;ratioP1;P1;durP2;ratioP2;P2;SDS_P1;SDS_P2;PMS_P1;PMS_P2;Temp;Humidity;BMP_temperature;BMP_pressure;BME280_temperature;BME280_humidity;BME280_pressure;Samples;Min_cycle;Max_cycle;Signal;HPM_P1;HPM_P2
2023/08/14 00:02:22;;;;;;;9.25;5.70;;;;;;;-142.57;83.84;115900.28;4993411;28;20026;-89
2023/08/14 00:04:48;;;;;;;13.27;5.68;;;;;;;-142.57;84.36;115900.28;4993231;28;20507;-87
2023/08/14 00:07:14;;;;;;;9.50;6.35;;;;;;;-142.57;85.13;115900.28;4994857;28;20040;-88
2023/08/14 00:09:39;;;;;;;15.73;5.85;;;;;;;-142.57;85.94;115900.28;4998053;28;20102;-87
2023/08/14 00:12:05;;;;;;;8.13;6.25;;;;;;;-142.57;86.38;115900.28;4998007;28;20046;-88
2023/08/14 00:14:30;;;;;;;10.20;5.57;;;;;;;-142.57;85.76;115900.28;4995743;28;20072;-89
2023/08/14 00:16:56;;;;;;;8.57;5.88;;;;;;;-142.57;85.67;115900.28;4996500;28;20038;-88
2023/08/14 00:19:22;;;;;;;18.15;6.03;;;;;;;-142.57;85.40;115900.28;4996026;28;20500;-89
2023/08/14 00:21:47;;;;;;;8.13;5.68;;;;;;;-142.57;85.01;115900.28;4996223;28;20030;-87
2023/08/14 00:24:13;;;;;;;14.35;5.85;;;;;;;-142.57;84.45;115900.28;4996403;28;20453;-87
2023/08/14 00:26:38;;;;;;;7.95;6.10;;;;;;;-142.57;84.25;115900.28;4996484;28;20039;-88
2023/08/14 00:29:04;;;;;;;8.73;6.18;;;;;;;-142.57;83.89;115900.28;4996795;28;20042;-88
2023/08/14 00:31:29;;;;;;;8.82;6.05;;;;;;;-142.57;83.55;115900.28;4996150;28;20045;-87
2023/08/14 00:33:55;;;;;;;13.70;6.28;;;;;;;-142.57;84.73;115900.28;4979081;28;20046;-87
2023/08/14 00:36:20;;;;;;;17.58;6.32;;;;;;;-142.57;84.98;115900.28;5010466;28;20034;-85
2023/08/14 00:38:46;;;;;;;9.40;5.70;;;;;;;-142.57;85.50;115900.28;4994448;28;20038;-85
2023/08/14 00:41:11;;;;;;;9.63;6.13;;;;;;;-142.57;86.14;115900.28;4995410;28;20089;-84
2023/08/14 00:43:37;;;;;;;8.15;6.22;;;;;;;-142.57;86.11;115900.28;4994359;28;20049;-84
2023/08/14 00:46:03;;;;;;;9.15;6.32;;;;;;;-142.57;86.02;115900.28;4994131;28;20493;-85
2023/08/14 00:48:30;;;;;;;9.95;6.10;;;;;;;-142.57;85.54;115900.28;4995818;28;20042;-85
2023/08/14 00:50:56;;;;;;;8.85;6.03;;;;;;;-142.57;86.09;115900.28;5010278;28;20342;-84
2023/08/14 00:53:25;;;;;;;8.35;6.45;;;;;;;-142.57;85.42;115900.28;4995603;28;20395;-85
2023/08/14 00:55:51;;;;;;;9.40;6.18;;;;;;;-142.57;85.40;115900.28;4993734;28;20045;-85
2023/08/14 00:58:17;;;;;;;9.90;6.45;;;;;;;-142.57;85.28;115900.28;4995345;28;20044;-86
2023/08/14 01:00:43;;;;;;;9.70;7.10;;;;;;;-142.57;84.78;115900.28;5010190;28;20117;-84
2023/08/14 01:03:10;;;;;;;9.38;7.03;;;;;;;-142.57;85.05;115900.28;5010526;28;20030;-84
2023/08/14 01:05:36;;;;;;;9.32;6.53;;;;;;;-142.57;84.75;115900.28;4995161;28;20034;-85
2023/08/14 01:08:02;;;;;;;9.77;6.80;;;;;;;-142.57;84.39;115900.28;4993882;28;20511;-85
2023/08/14 01:10:42;;;;;;;12.95;6.78;;;;;;;-142.57;84.86;115900.28;4994895;28;20041;-85
2023/08/14 01:13:34;;;;;;;8.80;6.53;;;;;;;-142.57;85.92;115900.28;4995299;28;20129;-83
2023/08/14 01:16:05;;;;;;;7.45;5.75;;;;;;;-142.57;87.08;115900.28;4994636;28;20041;-85
2023/08/14 01:18:33;;;;;;;11.15;6.50;;;;;;;-142.57;86.51;115900.28;4993828;28;20043;-84
2023/08/14 01:21:35;;;;;;;9.48;6.03;;;;;;;-142.57;86.20;115900.28;4994386;28;20121;-85
2023/08/14 01:24:13;;;;;;;9.73;7.47;;;;;;;-142.57;86.44;115900.28;4918974;29;20189;-84
2023/08/14 01:26:39;;;;;;;14.75;8.27;;;;;;;-142.57;87.32;115900.28;4917640;29;20475;-84
2023/08/14 01:29:05;;;;;;;16.98;9.13;;;;;;;-142.57;87.84;115900.28;4917146;29;20123;-84
2023/08/14 01:31:30;;;;;;;11.32;9.13;;;;;;;-142.57;87.69;115900.28;4900239;29;20085;-84
2023/08/14 01:33:57;;;;;;;11.20;9.13;;;;;;;-142.57;87.81;115900.28;4924392;28;20559;-84
2023/08/14 01:36:34;;;;;;;19.33;9.95;;;;;;;-142.57;87.73;115900.28;4990706;28;20035;-84
2023/08/14 01:39:07;;;;;;;15.35;9.63;;;;;;;-142.57;87.19;115900.28;5010611;28;20089;-84
2023/08/14 01:41:48;;;;;;;15.00;10.75;;;;;;;-142.57;87.67;115900.28;4995582;28;20088;-84
2023/08/14 01:44:18;;;;;;;13.13;10.35;;;;;;;-142.57;87.65;115900.28;5010300;28;20159;-84
2023/08/14 01:46:47;;;;;;;18.48;10.32;;;;;;;-142.57;87.30;115900.28;4994848;28;20042;-84
2023/08/14 01:49:16;;;;;;;12.23;9.85;;;;;;;-142.57;87.61;115900.28;4995070;28;20073;-84
2023/08/14 01:51:42;;;;;;;13.45;9.23;;;;;;;-142.57;87.30;115900.28;4994518;28;20392;-84
2023/08/14 01:54:07;;;;;;;15.93;8.48;;;;;;;-142.57;86.97;115900.28;4995074;28;20040;-84
2023/08/14 01:56:33;;;;;;;14.32;10.10;;;;;;;-142.57;87.64;115900.28;5009786;28;20023;-84
2023/08/14 01:58:58;;;;;;;17.10;10.75;;;;;;;-142.57;87.04;115900.28;4993363;28;20394;-84
2023/08/14 02:01:24;;;;;;;19.50;10.90;;;;;;;-142.57;87.46;115900.28;4994495;28;20121;-84
2023/08/14 02:03:49;;;;;;;13.02;9.32;;;;;;;-142.57;87.21;115900.28;4994572;28;20373;-83
2023/08/14 02:06:15;;;;;;;13.77;9.32;;;;;;;-142.57;86.75;115900.28;4994337;28;20491;-84
2023/08/14 02:08:40;;;;;;;17.17;9.05;;;;;;;-142.57;86.22;115900.28;4995271;28;20039;-84
2023/08/14 02:11:07;;;;;;;20.00;9.75;;;;;;;-142.57;87.75;115900.28;4994650;28;20038;-85
2023/08/14 02:13:33;;;;;;;12.10;8.43;;;;;;;-142.57;87.88;115900.28;4993738;28;20034;-86
2023/08/14 02:15:59;;;;;;;13.48;8.23;;;;;;;-142.57;87.78;115900.28;5009657;28;20546;-85
2023/08/14 02:18:24;;;;;;;15.73;7.20;;;;;;;-142.57;89.38;115900.28;4992379;28;20054;-86
2023/08/14 02:20:49;;;;;;;11.13;7.20;;;;;;;-142.57;90.67;115900.28;4992567;28;20062;-85
2023/08/14 02:23:15;;;;;;;11.23;6.38;;;;;;;-142.57;92.13;115900.28;4992761;28;20034;-86
2023/08/14 02:25:41;;;;;;;8.65;6.50;;;;;;;-142.57;91.79;115900.28;4992534;28;20434;-85
2023/08/14 02:28:11;;;;;;;9.70;6.40;;;;;;;-142.57;93.29;115900.28;4995296;28;20034;-83
2023/08/14 02:30:38;;;;;;;10.40;7.53;;;;;;;-142.57;94.48;115900.28;4993975;28;20038;-84
2023/08/14 02:33:04;;;;;;;11.70;7.63;;;;;;;-142.57;95.36;115900.28;4977324;28;20192;-85
2023/08/14 02:35:30;;;;;;;10.05;8.10;;;;;;;-142.57;96.38;115900.28;4994093;28;20117;-84
2023/08/14 02:37:56;;;;;;;13.27;8.85;;;;;;;-142.57;95.53;115900.28;4994271;28;20031;-84
2023/08/14 02:40:21;;;;;;;15.65;9.40;;;;;;;-142.57;96.44;115900.28;4992566;28;20038;-85
2023/08/14 02:42:47;;;;;;;14.93;9.75;;;;;;;-142.57;98.03;115900.28;5009164;28;20056;-87
2023/08/14 02:45:12;;;;;;;11.82;8.70;;;;;;;-142.57;97.15;115900.28;5009541;28;20085;-88
2023/08/14 02:47:38;;;;;;;10.07;8.15;;;;;;;-142.57;95.79;115900.28;4994240;28;20042;-87
2023/08/14 02:50:05;;;;;;;12.65;9.02;;;;;;;-142.57;96.70;115900.28;5008979;28;20129;-89
2023/08/14 02:52:30;;;;;;;13.35;8.77;;;;;;;-142.57;94.34;115900.28;4994200;28;20369;-90
2023/08/14 02:54:56;;;;;;;15.95;8.70;;;;;;;-142.57;96.56;115900.28;4992165;28;20033;-87
2023/08/14 02:57:21;;;;;;;17.27;8.57;;;;;;;-142.57;96.52;115900.28;4993021;28;20105;-88
2023/08/14 02:59:47;;;;;;;12.27;8.40;;;;;;;-142.57;96.94;115900.28;4993814;28;20408;-89
2023/08/14 03:02:13;;;;;;;13.82;8.73;;;;;;;-142.57;98.64;115900.28;5008692;28;20112;-88
2023/08/14 03:04:39;;;;;;;9.45;8.18;;;;;;;-142.57;98.53;115900.28;4992431;28;20461;-89
2023/08/14 03:07:04;;;;;;;12.10;8.00;;;;;;;-142.57;98.22;115900.28;4992318;28;20366;-89
2023/08/14 03:09:30;;;;;;;12.65;7.95;;;;;;;-142.57;98.89;115900.28;4993582;28;20038;-88
2023/08/14 03:11:55;;;;;;;13.73;9.02;;;;;;;-142.57;99.17;115900.28;4992059;28;20078;-88
2023/08/14 03:14:22;;;;;;;10.57;9.38;;;;;;;-142.57;98.93;115900.28;5008272;28;20046;-88
2023/08/14 03:16:47;;;;;;;16.42;9.00;;;;;;;-142.57;99.32;115900.28;4992140;28;20113;-88
2023/08/14 03:19:13;;;;;;;15.18;9.18;;;;;;;-142.57;99.58;115900.28;5008195;28;20104;-88
2023/08/14 03:21:40;;;;;;;17.75;9.13;;;;;;;-142.57;100.00;115900.28;5007831;28;20052;-87
2023/08/14 03:24:06;;;;;;;12.55;8.73;;;;;;;-142.57;100.00;115900.28;4993461;28;20043;-88
2023/08/14 03:26:32;;;;;;;13.20;8.75;;;;;;;-142.57;100.00;115900.28;4993494;28;20081;-87
2023/08/14 03:28:57;;;;;;;14.95;7.78;;;;;;;-142.57;100.00;115900.28;4991777;28;20324;-89
2023/08/14 03:31:23;;;;;;;9.70;7.90;;;;;;;-142.57;100.00;115900.28;4991832;28;20104;-87
2023/08/14 03:33:49;;;;;;;8.82;7.47;;;;;;;-142.57;100.00;115900.28;5008608;28;20090;-87
2023/08/14 03:36:14;;;;;;;8.15;6.38;;;;;;;-142.57;100.00;115900.28;4993097;28;20030;-87
2023/08/14 03:38:40;;;;;;;12.50;7.35;;;;;;;-142.57;100.00;115900.28;5008561;28;20564;-89
2023/08/14 03:41:06;;;;;;;10.32;7.80;;;;;;;-142.57;100.00;115900.28;5007843;28;20028;-86
2023/08/14 03:43:32;;;;;;;9.85;8.38;;;;;;;-142.57;100.00;115900.28;4995926;28;20077;-86
2023/08/14 03:45:57;;;;;;;10.98;9.43;;;;;;;-142.57;100.00;115900.28;5012051;28;20454;-86
2023/08/14 03:48:23;;;;;;;14.57;9.60;;;;;;;-142.57;100.00;115900.28;4996979;28;20437;-87
2023/08/14 03:50:49;;;;;;;11.65;9.57;;;;;;;-142.57;100.00;115900.28;4997809;28;20088;-89
2023/08/14 03:53:15;;;;;;;12.18;9.27;;;;;;;-142.57;100.00;115900.28;5012410;28;20543;-86
2023/08/14 03:55:41;;;;;;;15.23;9.02;;;;;;;-142.57;100.00;115900.28;5011928;28;20054;-86
2023/08/14 03:58:06;;;;;;;11.55;8.55;;;;;;;-142.57;100.00;115900.28;4997029;28;20441;-87
2023/08/14 04:00:32;;;;;;;11.95;9.85;;;;;;;-142.57;100.00;115900.28;4995383;28;20467;-87
2023/08/14 04:02:57;;;;;;;17.15;10.07;;;;;;;-142.57;100.00;115900.28;4997810;28;20030;-86
2023/08/14 04:05:23;;;;;;;12.13;10.25;;;;;;;-142.57;100.00;115900.28;4996909;28;20034;-88
2023/08/14 04:07:48;;;;;;;15.20;11.03;;;;;;;-142.57;100.00;115900.28;4997470;28;20045;-87
2023/08/14 04:10:14;;;;;;;12.00;10.45;;;;;;;-142.57;100.00;115900.28;4996297;28;20093;-87
2023/08/14 04:12:39;;;;;;;12.40;10.48;;;;;;;-142.57;100.00;115900.28;4998516;28;20030;-86
2023/08/14 04:15:15;;;;;;;14.85;10.60;;;;;;;-142.57;100.00;115900.28;4998640;28;20026;-88
2023/08/14 04:17:41;;;;;;;21.42;11.68;;;;;;;-142.57;100.00;115900.28;4998516;28;20034;-87
2023/08/14 04:20:07;;;;;;;13.23;10.48;;;;;;;-142.57;100.00;115900.28;4998193;28;20111;-86
2023/08/14 04:22:32;;;;;;;14.23;10.25;;;;;;;-142.57;100.00;115900.28;4996329;28;20038;-86
2023/08/14 04:24:58;;;;;;;10.80;9.70;;;;;;;-142.57;100.00;115900.28;5011350;28;20519;-87
2023/08/14 04:27:23;;;;;;;18.35;11.00;;;;;;;-142.57;100.00;115900.28;4996556;28;20038;-86
2023/08/14 04:29:49;;;;;;;23.92;11.27;;;;;;;-142.57;100.00;115900.28;5011261;28;20069;-88
2023/08/14 04:32:14;;;;;;;23.17;10.45;;;;;;;-142.57;100.00;115900.28;5011012;28;20046;-88
2023/08/14 04:34:40;;;;;;;13.38;10.55;;;;;;;-142.57;100.00;115900.28;4995855;28;20086;-87
2023/08/14 04:37:06;;;;;;;12.50;10.20;;;;;;;-142.57;100.00;115900.28;5010871;28;20057;-89
2023/08/14 04:39:32;;;;;;;16.25;10.73;;;;;;;-142.57;100.00;115900.28;4994841;28;20026;-88
2023/08/14 04:41:59;;;;;;;13.63;10.98;;;;;;;-142.57;100.00;115900.28;4994632;28;20035;-90
2023/08/14 04:44:26;;;;;;;15.85;11.10;;;;;;;-142.57;100.00;115900.28;5011322;28;20045;-86
2023/08/14 04:46:52;;;;;;;12.13;9.65;;;;;;;-142.57;100.00;115900.28;4994791;28;20030;-89
2023/08/14 04:49:18;;;;;;;13.55;10.35;;;;;;;-142.57;100.00;115900.28;5011218;28;20129;-89
2023/08/14 04:51:43;;;;;;;18.10;11.75;;;;;;;-142.57;100.00;115900.28;4995867;28;20037;-87
2023/08/14 04:54:09;;;;;;;20.23;11.45;;;;;;;-142.57;100.00;115900.28;4994937;28;20476;-87
2023/08/14 04:56:34;;;;;;;18.17;11.55;;;;;;;-142.57;100.00;115900.28;4995878;28;20423;-91
2023/08/14 04:59:02;;;;;;;19.42;12.63;;;;;;;-142.57;100.00;115900.28;4996086;28;20393;-88
2023/08/14 05:01:28;;;;;;;20.10;12.18;;;;;;;-142.57;100.00;115900.28;4994865;28;20022;-87
2023/08/14 05:03:56;;;;;;;15.23;11.80;;;;;;;-142.57;100.00;115900.28;4996684;28;20339;-88
2023/08/14 05:06:23;;;;;;;20.40;12.93;;;;;;;-142.57;100.00;115900.28;5015409;28;20061;-89
2023/08/14 05:08:49;;;;;;;14.00;11.80;;;;;;;-142.57;100.00;115900.28;5000191;28;20477;-90
2023/08/14 05:11:15;;;;;;;20.23;13.07;;;;;;;-142.57;100.00;115900.28;4999510;28;20041;-87
2023/08/14 05:13:44;;;;;;;15.95;12.90;;;;;;;-142.57;100.00;115900.28;4997780;28;20078;-87
2023/08/14 05:16:10;;;;;;;24.13;15.48;;;;;;;-142.57;100.00;115900.28;5015389;28;20453;-88
2023/08/14 05:18:37;;;;;;;21.38;14.68;;;;;;;-142.57;100.00;115900.28;5012188;28;20046;-87
2023/08/14 05:21:03;;;;;;;18.48;13.30;;;;;;;-142.57;100.00;115900.28;4996935;28;20049;-86
2023/08/14 05:23:28;;;;;;;13.48;12.05;;;;;;;-142.57;100.00;115900.28;4996397;28;20026;-86
2023/08/14 05:25:54;;;;;;;15.85;12.23;;;;;;;-142.57;100.00;115900.28;4996098;28;20381;-86
2023/08/14 05:28:19;;;;;;;17.45;11.35;;;;;;;-142.57;100.00;115900.28;4996599;28;20046;-88
2023/08/14 05:30:45;;;;;;;15.68;11.43;;;;;;;-142.57;100.00;115900.28;4998725;28;20066;-90
2023/08/14 05:33:15;;;;;;;13.93;10.98;;;;;;;-142.57;98.56;115900.28;5019558;28;20536;-91
2023/08/14 05:35:49;;;;;;;18.08;11.32;;;;;;;-142.57;96.02;115900.28;5000100;28;20176;-84
2023/08/14 05:38:15;;;;;;;13.73;11.00;;;;;;;-142.57;94.25;115900.28;4999791;28;20046;-88
2023/08/14 05:40:40;;;;;;;17.58;10.75;;;;;;;-142.57;92.06;115900.28;4998720;28;20038;-88
2023/08/14 05:43:16;;;;;;;11.82;10.63;;;;;;;-142.57;88.56;115900.28;5025105;28;20087;-93
2023/08/14 05:45:45;;;;;;;18.02;11.30;;;;;;;-142.57;87.47;115900.28;5009611;28;20042;-87
2023/08/14 05:48:12;;;;;;;13.88;10.77;;;;;;;-142.57;85.85;115900.28;5010743;28;20038;-87
2023/08/14 05:50:41;;;;;;;18.45;9.65;;;;;;;-142.57;79.99;115900.28;5010276;28;20068;-90
2023/08/14 05:53:12;;;;;;;12.82;9.45;;;;;;;-142.57;74.11;115900.28;5022646;28;20045;-86
2023/08/14 05:55:39;;;;;;;14.27;10.05;;;;;;;-142.57;70.81;115900.28;5008413;28;20078;-90
2023/08/14 05:58:06;;;;;;;13.38;8.13;;;;;;;-142.57;68.41;115900.28;5003579;28;20030;-88
2023/08/14 06:00:32;;;;;;;16.73;9.80;;;;;;;-142.57;68.09;115900.28;5000531;28;20441;-87
2023/08/14 06:02:59;;;;;;;17.90;9.73;;;;;;;-142.57;64.34;115900.28;4996926;28;20018;-89
2023/08/14 06:05:28;;;;;;;12.23;9.18;;;;;;;-142.57;67.41;115900.28;5015954;28;20049;-89
2023/08/14 06:07:54;;;;;;;10.07;8.70;;;;;;;-142.57;65.20;115900.28;5012655;28;20031;-91
2023/08/14 06:10:20;;;;;;;14.93;9.30;;;;;;;-142.57;66.96;115900.28;4999098;28;20584;-85
2023/08/14 06:12:48;;;;;;;15.63;10.00;;;;;;;-142.57;65.90;115900.28;5013743;28;20057;-87
2023/08/14 06:15:14;;;;;;;15.90;9.32;;;;;;;-142.57;66.69;115900.28;4995053;28;20030;-88
2023/08/14 06:17:41;;;;;;;18.70;11.07;;;;;;;-142.57;63.56;115900.28;4995556;28;20109;-86
2023/08/14 06:20:07;;;;;;;16.35;9.80;;;;;;;-142.57;64.62;115900.28;4998262;28;20034;-91
2023/08/14 06:22:32;;;;;;;14.70;9.65;;;;;;;-142.57;65.30;115900.28;4998530;28;20041;-85
2023/08/14 06:24:58;;;;;;;13.43;10.15;;;;;;;-142.57;63.24;115900.28;4995433;28;20077;-88
2023/08/14 06:27:23;;;;;;;23.00;10.05;;;;;;;-142.57;61.32;115900.28;4994055;28;20023;-89
2023/08/14 06:29:49;;;;;;;14.48;9.32;;;;;;;-142.57;61.89;115900.28;4999324;28;20088;-85
2023/08/14 06:32:14;;;;;;;17.33;8.75;;;;;;;-142.57;63.21;115900.28;4994901;28;20038;-85
2023/08/14 06:34:40;;;;;;;11.90;8.57;;;;;;;-142.57;63.05;115900.28;4997005;28;20031;-88
2023/08/14 06:37:10;;;;;;;11.45;8.25;;;;;;;-142.57;61.53;115900.28;5008984;28;20022;-89
2023/08/14 06:39:36;;;;;;;14.07;7.53;;;;;;;-142.57;62.22;115900.28;5018692;28;20026;-87
2023/08/14 06:42:02;;;;;;;10.07;7.20;;;;;;;-142.57;60.79;115900.28;5018279;28;20024;-86
2023/08/14 06:44:28;;;;;;;11.05;7.18;;;;;;;-142.57;59.07;115900.28;5015193;28;20560;-87
2023/08/14 06:46:53;;;;;;;11.07;6.43;;;;;;;-142.57;56.98;115900.28;4993481;28;20121;-86
2023/08/14 06:49:19;;;;;;;10.52;7.25;;;;;;;-142.57;57.12;115900.28;4998474;28;20124;-89
2023/08/14 06:51:47;;;;;;;15.73;6.65;;;;;;;-142.57;53.37;115900.28;4996880;28;20052;-87
2023/08/14 06:54:13;;;;;;;11.55;6.90;;;;;;;-142.57;54.04;115900.28;5012325;28;20045;-87
2023/08/14 06:56:39;;;;;;;14.07;6.20;;;;;;;-142.57;51.42;115900.28;4994513;28;20042;-84
2023/08/14 06:59:04;;;;;;;10.65;7.82;;;;;;;-142.57;53.51;115900.28;4998003;28;20434;-86
2023/08/14 07:01:37;;;;;;;13.30;7.25;;;;;;;-142.57;53.07;115900.28;4999376;28;20022;-89
2023/08/14 07:04:07;;;;;;;12.80;6.72;;;;;;;-142.57;54.88;115900.28;5002194;28;20045;-89
2023/08/14 07:06:33;;;;;;;16.70;7.65;;;;;;;-142.57;54.15;115900.28;5000631;28;20133;-90
2023/08/14 07:09:00;;;;;;;10.93;7.35;;;;;;;-142.57;54.48;115900.28;4998698;28;20046;-90
2023/08/14 07:11:26;;;;;;;13.93;8.93;;;;;;;-142.57;54.20;115900.28;5003502;28;20047;-88
2023/08/14 07:13:54;;;;;;;11.15;7.22;;;;;;;-142.57;53.03;115900.28;5014282;28;20080;-92
2023/08/14 07:16:20;;;;;;;15.00;7.57;;;;;;;-142.57;53.73;115900.28;5000907;28;20018;-88
2023/08/14 07:18:46;;;;;;;12.48;7.40;;;;;;;-142.57;52.86;115900.28;5003987;28;20058;-91
2023/08/14 07:21:24;;;;;;;8.88;7.60;;;;;;;-142.57;51.84;115900.28;5005690;28;20022;-92
2023/08/14 07:23:52;;;;;;;14.07;6.85;;;;;;;-142.57;51.65;115900.28;5007025;28;20172;-91
2023/08/14 07:26:23;;;;;;;13.07;6.53;;;;;;;-142.57;50.01;115900.28;5023194;28;20026;-93
2023/08/14 07:28:52;;;;;;;10.93;7.75;;;;;;;-142.57;49.63;115900.28;5009352;28;20044;-93
2023/08/14 07:31:21;;;;;;;14.20;6.20;;;;;;;-142.57;50.56;115900.28;5027801;28;20034;-93
2023/08/14 07:34:18;;;;;;;8.50;6.72;;;;;;;-142.57;48.80;115900.28;5012269;28;20098;-92
2023/08/14 07:39:44;;;;;;;8.02;6.20;;;;;;;-142.57;47.16;115900.28;3668016;22;20065;-85
2023/08/14 07:42:10;;;;;;;10.70;5.40;;;;;;;-142.57;47.93;115900.28;5017605;28;20110;-90
2023/08/14 07:44:51;;;;;;;11.38;5.25;;;;;;;-142.57;46.46;115900.28;4991966;28;20106;-92
2023/08/14 07:47:16;;;;;;;11.43;5.00;;;;;;;-142.57;44.48;115900.28;4999886;28;20033;-91
2023/08/14 07:49:45;;;;;;;11.88;6.82;;;;;;;-142.57;45.03;115900.28;5024523;28;20077;-91
2023/08/14 07:52:17;;;;;;;13.68;5.68;;;;;;;-142.57;45.16;115900.28;5004644;28;20108;-93
2023/08/14 07:54:43;;;;;;;11.82;5.60;;;;;;;-142.57;46.22;115900.28;5023583;28;20037;-91
2023/08/14 07:57:09;;;;;;;13.88;6.55;;;;;;;-142.57;45.15;115900.28;4985345;28;20042;-91
2023/08/14 07:59:34;;;;;;;9.05;6.85;;;;;;;-142.57;43.90;115900.28;5017769;28;20440;-91
2023/08/14 08:02:00;;;;;;;13.93;6.30;;;;;;;-142.57;43.16;115900.28;5017973;28;20034;-92
2023/08/14 08:04:26;;;;;;;11.98;5.82;;;;;;;-142.57;42.18;115900.28;5001647;28;20026;-92
2023/08/14 08:06:52;;;;;;;11.02;6.38;;;;;;;-142.57;41.05;115900.28;4984242;28;20041;-89
2023/08/14 08:09:18;;;;;;;8.88;5.68;;;;;;;-142.57;41.10;115900.28;5001039;28;20137;-90
2023/08/14 08:11:43;;;;;;;7.43;6.20;;;;;;;-142.57;41.46;115900.28;4999633;28;20077;-89
2023/08/14 08:14:09;;;;;;;13.05;6.45;;;;;;;-142.57;42.39;115900.28;5018718;28;20030;-92
2023/08/14 08:16:37;;;;;;;9.82;5.65;;;;;;;-142.57;42.97;115900.28;5023085;28;20030;-90
2023/08/14 08:19:06;;;;;;;7.68;6.03;;;;;;;-142.57;42.06;115900.28;5003309;28;20073;-91
2023/08/14 08:21:32;;;;;;;8.05;5.80;;;;;;;-142.57;40.81;115900.28;5020692;28;20034;-91
2023/08/14 08:23:58;;;;;;;8.38;6.25;;;;;;;-142.57;39.38;115900.28;5005838;28;20065;-90
2023/08/14 08:26:28;;;;;;;9.60;5.75;;;;;;;-142.57;38.87;115900.28;4987093;28;20045;-91
2023/08/14 08:28:53;;;;;;;21.98;6.57;;;;;;;-142.57;39.76;115900.28;5027230;28;20026;-90
2023/08/14 08:31:19;;;;;;;10.38;4.70;;;;;;;-142.57;39.34;115900.28;5016877;28;20416;-90
2023/08/14 08:33:45;;;;;;;5.95;4.43;;;;;;;-142.57;39.22;115900.28;5020764;28;20077;-92
2023/08/14 08:36:11;;;;;;;8.75;6.22;;;;;;;-142.57;39.10;115900.28;5020599;28;20037;-91
2023/08/14 08:38:36;;;;;;;13.18;5.57;;;;;;;-142.57;39.63;115900.28;5036769;28;20073;-91
2023/08/14 08:41:02;;;;;;;11.30;6.88;;;;;;;-142.57;39.31;115900.28;5036107;28;20034;-90
2023/08/14 08:43:28;;;;;;;12.50;5.90;;;;;;;-142.57;39.77;115900.28;5010582;28;20038;-92
2023/08/14 08:45:58;;;;;;;11.43;7.60;;;;;;;-142.57;40.04;115900.28;4997891;28;20042;-89
2023/08/14 08:48:32;;;;;;;7.40;6.50;;;;;;;-142.57;39.50;115900.28;5008459;28;20040;-91
2023/08/14 08:51:02;;;;;;;8.93;6.25;;;;;;;-142.57;39.68;115900.28;5022667;28;20038;-89
2023/08/14 08:53:28;;;;;;;23.48;4.95;;;;;;;-142.57;38.57;115900.28;5003072;28;20042;-91
2023/08/14 08:55:54;;;;;;;8.82;6.05;;;;;;;-142.57;38.30;115900.28;5024971;28;20030;-90
2023/08/14 08:58:21;;;;;;;9.68;5.60;;;;;;;-142.57;38.47;115900.28;5001457;28;20041;-90
2023/08/14 09:00:51;;;;;;;9.15;6.80;;;;;;;-142.57;39.72;115900.28;4988404;28;20026;-91
2023/08/14 09:03:16;;;;;;;10.68;6.22;;;;;;;-142.57;39.42;115900.28;5021146;28;20485;-88
2023/08/14 09:05:42;;;;;;;5.70;4.63;;;;;;;-142.57;39.43;115900.28;4991004;28;20038;-90
2023/08/14 09:08:10;;;;;;;11.32;6.20;;;;;;;-142.57;38.65;115900.28;5036062;28;20040;-90
2023/08/14 09:10:36;;;;;;;11.65;5.07;;;;;;;-142.57;38.17;115900.28;5002571;28;20034;-91
2023/08/14 09:13:10;;;;;;;8.73;4.50;;;;;;;-142.57;37.46;115900.28;5022838;28;20527;-89
2023/08/14 09:15:41;;;;;;;;;;;;;;;-142.57;36.48;115900.28;5007000;28;20045;-91
2023/08/14 09:18:06;;;;;;;8.88;4.97;;;;;;;-142.57;35.99;115900.28;4999278;28;19917;-90
2023/08/14 09:20:32;;;;;;;5.88;4.05;;;;;;;-142.57;35.53;115900.28;5010437;28;20045;-91
2023/08/14 09:22:58;;;;;;;7.45;4.50;;;;;;;-142.57;34.98;115900.28;5021817;28;20461;-89
2023/08/14 09:25:25;;;;;;;12.82;6.30;;;;;;;-142.57;35.41;115900.28;5020058;28;20037;-90
2023/08/14 09:27:55;;;;;;;7.57;5.50;;;;;;;-142.57;35.37;115900.28;5029052;28;20033;-92
2023/08/14 09:30:24;;;;;;;14.23;5.13;;;;;;;-142.57;35.79;115900.28;5036223;28;20037;-92
2023/08/14 09:32:49;;;;;;;6.25;3.70;;;;;;;-142.57;35.16;115900.28;5030431;28;20029;-91
2023/08/14 09:35:15;;;;;;;8.48;4.60;;;;;;;-142.57;33.72;115900.28;5030831;28;20396;-91
2023/08/14 09:37:40;;;;;;;11.40;4.38;;;;;;;-142.57;33.56;115900.28;5011532;28;20037;-93
2023/08/14 09:40:33;;;;;;;8.90;3.13;;;;;;;-142.57;32.31;115900.28;5035121;28;20042;-92
2023/08/14 09:43:00;;;;;;;7.78;2.95;;;;;;;-142.57;33.25;115900.28;5030382;28;20107;-91
2023/08/14 09:45:28;;;;;;;4.93;2.90;;;;;;;-142.57;31.98;115900.28;5017154;28;20060;-91
2023/08/14 09:48:04;;;;;;;9.52;3.28;;;;;;;-142.57;32.54;115900.28;5015714;28;20046;-92
2023/08/14 09:50:31;;;;;;;4.72;3.75;;;;;;;-142.57;32.75;115900.28;5049690;28;20029;-90
2023/08/14 09:53:00;;;;;;;6.85;4.15;;;;;;;-142.57;33.94;115900.28;5041963;28;20090;-92
2023/08/14 09:56:06;;;;;;;9.32;4.38;;;;;;;-142.57;33.50;115900.28;5043969;28;20100;-90
2023/08/14 09:58:41;;;;;;;5.88;3.00;;;;;;;-142.57;33.11;115900.28;5043840;28;20125;-92
2023/08/14 10:01:11;;;;;;;4.45;2.90;;;;;;;-142.57;32.71;115900.28;5007547;28;20045;-93
2023/08/14 10:03:38;;;;;;;3.33;2.85;;;;;;;-142.57;32.22;115900.28;5018475;28;20034;-92
2023/08/14 10:06:06;;;;;;;4.72;2.58;;;;;;;-142.57;31.66;115900.28;5024317;28;20048;-92
2023/08/14 10:08:59;;;;;;;4.95;2.22;;;;;;;-142.57;31.68;115900.28;5023935;28;20484;-89
2023/08/14 10:11:28;;;;;;;4.32;3.15;;;;;;;-142.57;31.90;115900.28;5030632;28;20037;-89
2023/08/14 10:14:10;;;;;;;6.57;3.55;;;;;;;-142.57;32.88;115900.28;5018538;28;20065;-91
2023/08/14 10:16:40;;;;;;;6.05;3.95;;;;;;;-142.57;33.59;115900.28;5038915;28;20040;-92
2023/08/14 10:19:18;;;;;;;20.75;4.20;;;;;;;-142.57;32.62;115900.28;5033022;28;20045;-91
2023/08/14 10:21:46;;;;;;;9.90;3.40;;;;;;;-142.57;31.92;115900.28;5017333;28;20076;-91
2023/08/14 10:24:12;;;;;;;7.13;3.00;;;;;;;-142.57;31.12;115900.28;5013478;28;20048;-90
2023/08/14 10:26:38;;;;;;;7.88;2.80;;;;;;;-142.57;32.02;115900.28;5003651;28;20061;-88
2023/08/14 10:29:05;;;;;;;6.05;2.60;;;;;;;-142.57;31.63;115900.28;5021708;28;20033;-91
2023/08/14 10:31:31;;;;;;;8.20;3.30;;;;;;;-142.57;32.21;115900.28;5038123;28;20056;-91
2023/08/14 10:33:58;;;;;;;6.13;2.80;;;;;;;-142.57;30.79;115900.28;5034447;28;20030;-89
2023/08/14 10:36:28;;;;;;;7.20;3.15;;;;;;;-142.57;30.45;115900.28;5037120;28;20029;-91
2023/08/14 10:38:53;;;;;;;8.02;3.13;;;;;;;-142.57;31.12;115900.28;5015780;28;20041;-91
2023/08/14 10:41:22;;;;;;;6.18;2.90;;;;;;;-142.57;30.66;115900.28;5022192;28;20029;-90
2023/08/14 10:43:50;;;;;;;5.10;2.42;;;;;;;-142.57;30.46;115900.28;5009169;28;20130;-88
2023/08/14 10:46:17;;;;;;;13.43;3.13;;;;;;;-142.57;30.41;115900.28;5023015;28;20073;-89
2023/08/14 10:48:48;;;;;;;7.30;2.85;;;;;;;-142.57;30.52;115900.28;5007727;28;20038;-90
2023/08/14 10:51:20;;;;;;;11.90;2.67;;;;;;;-142.57;30.67;115900.28;5015654;28;20025;-92
2023/08/14 10:53:46;;;;;;;4.55;2.95;;;;;;;-142.57;30.19;115900.28;4998169;28;20033;-90
2023/08/14 10:56:12;;;;;;;5.38;3.05;;;;;;;-142.57;30.79;115900.28;5001848;28;20041;-90
2023/08/14 10:58:39;;;;;;;10.18;3.25;;;;;;;-142.57;30.78;115900.28;5008552;28;20068;-90
2023/08/14 11:01:06;;;;;;;8.73;2.88;;;;;;;-142.57;30.94;115900.28;5017610;28;20053;-90
2023/08/14 11:03:34;;;;;;;5.93;2.90;;;;;;;-142.57;29.83;115900.28;5034552;28;20045;-91
2023/08/14 11:06:00;;;;;;;5.43;2.47;;;;;;;-142.57;29.51;115900.28;5042238;28;20033;-88
2023/08/14 11:08:29;;;;;;;7.20;3.00;;;;;;;-142.57;30.11;115900.28;5039575;28;20106;-90